EW1549 Las Puntas Isla de El Hierro ES current weather conditions

sailwx.info

Wind from 126 at 1 knots gusting 3

Air temperature 20.6° C
Dewpoint 12.0° C

Last reported at 2017-Nov-20 21:02 UTC.
Time now 2017-Nov-20 21:26 UTC

Location: N 27°47' W 017°60'.
View on Google Maps.

See reports from other nearby stations

  
Tides and Currents Weather Stations Pressure Air Temp Water Temp Dewpoint Dewpoint Depression Visibility Wind Speed Wind Dir Waves Ship Positions
date/time (UTC)wind fromknots sea level pressurealtimeterstation pressurevisibilityair tempwater tempwave heightnotes
2017-Nov-20 21:02 126 1 gusting 3 20.6
2017-Nov-20 20:47 126 0 gusting 1 21.1
2017-Nov-20 20:32 170 21.1
2017-Nov-20 20:18 170 20.6
2017-Nov-20 20:02 170 1 gusting 2 21.1
2017-Nov-20 19:48 180 0 gusting 2 21.7
2017-Nov-20 19:33 308 22.2
2017-Nov-20 19:17 024 1 gusting 4 22.2
2017-Nov-20 19:02 066 1 gusting 4 22.2
2017-Nov-20 18:47 358 0 gusting 5 22.2
2017-Nov-20 18:32 147 2 gusting 6 22.2
2017-Nov-20 18:16 342 1 gusting 8 22.2
2017-Nov-20 18:02 339 5 gusting 10 22.2
2017-Nov-20 17:47 006 4 gusting 9 22.8
2017-Nov-20 17:32 010 6 gusting 14 22.8
2017-Nov-20 17:01 355 7 gusting 15 23.3
2017-Nov-20 16:48 315 6 gusting 12 23.9
2017-Nov-20 16:32 330 8 gusting 13 23.9
2017-Nov-20 16:17 317 4 gusting 9 25.0
2017-Nov-20 16:02 172 24.4
2017-Nov-20 15:46 291 1 gusting 6 24.4
2017-Nov-20 15:32 185 5 gusting 9 24.4
2017-Nov-20 15:16 203 4 gusting 7 24.4
2017-Nov-20 15:01 224 1 gusting 8 24.4
2017-Nov-20 14:47 183 5 gusting 11 24.4
2017-Nov-20 14:31 179 5 gusting 7 24.4
2017-Nov-20 14:16 218 2 gusting 6 23.9
2017-Nov-20 14:01 247 2 gusting 8 23.9
2017-Nov-20 13:46 211 0 gusting 6 24.4
2017-Nov-20 13:30 303 2 gusting 6 23.3
2017-Nov-20 13:16 257 2 gusting 6 23.3
2017-Nov-20 13:01 277 1 gusting 6 22.8
2017-Nov-20 12:45 305 22.2
2017-Nov-20 12:30 309 2 gusting 6 22.2
2017-Nov-20 12:15 304 2 gusting 5 22.2
2017-Nov-20 12:00 341 0 gusting 6 21.7
2017-Nov-20 11:46 337 1 gusting 6 21.7
2017-Nov-20 11:31 157 1 gusting 3 22.2
2017-Nov-20 11:15 157 20.6
2017-Nov-20 11:00 157 0 gusting 3 19.4
2017-Nov-20 10:45 157 18.9
2017-Nov-20 10:30 157 1 gusting 4 18.9
2017-Nov-20 10:16 157 18.9
2017-Nov-20 10:00 157 18.9
2017-Nov-20 09:45 181 1 gusting 6 18.3
2017-Nov-20 09:30 182 2 gusting 5 18.3
2017-Nov-20 09:15 182 2 gusting 3 18.3
2017-Nov-20 08:46 182 1 gusting 2 17.8
2017-Nov-20 08:31 182 18.3
2017-Nov-20 08:16 182 17.8
2017-Nov-20 08:01 182 0 gusting 1 17.8
2017-Nov-20 07:46 182 17.8
2017-Nov-20 07:31 182 1 gusting 2 17.8
2017-Nov-20 07:16 182 17.8
2017-Nov-20 07:01 182 17.8
2017-Nov-20 06:45 182 17.8
2017-Nov-20 06:32 182 17.8
2017-Nov-20 06:15 182 1 gusting 3 17.8
2017-Nov-20 06:00 182 1 gusting 3 17.8
2017-Nov-20 05:45 182 0 gusting 3 17.8
2017-Nov-20 05:31 182 1 gusting 3 17.8
2017-Nov-20 05:15 182 2 gusting 5 17.8
2017-Nov-20 05:00 182 2 gusting 5 17.8
2017-Nov-20 04:45 184 0 gusting 4 18.3
2017-Nov-20 04:29 150 17.8
2017-Nov-20 04:14 162 2 gusting 3 17.8
2017-Nov-20 04:00 162 17.8
2017-Nov-20 03:44 162 17.8
2017-Nov-20 03:30 162 0 gusting 1 17.8
2017-Nov-20 03:14 162 0 gusting 2 17.8
2017-Nov-20 03:00 162 17.8
2017-Nov-20 02:45 162 18.3
2017-Nov-20 02:29 149 2 gusting 4 18.9
2017-Nov-20 02:14 155 18.3
2017-Nov-20 02:00 097 0 gusting 1 18.9
2017-Nov-20 01:44 097 0 gusting 2 18.3
2017-Nov-20 01:29 144 18.3
2017-Nov-20 01:14 144 18.9
2017-Nov-20 00:59 228 18.9
2017-Nov-20 00:44 350 1 gusting 4 18.9
2017-Nov-20 00:29 153 18.9
2017-Nov-20 00:14 153 0 gusting 5 18.9
2017-Nov-19 23:59 147 0 gusting 3 18.9
2017-Nov-19 23:44 147 19.4
2017-Nov-19 23:29 147 19.4
2017-Nov-19 23:15 153 19.4
2017-Nov-19 22:59 159 19.4
2017-Nov-19 22:44 163 2 gusting 5 19.4
2017-Nov-19 22:29 198 6 gusting 8 19.4
2017-Nov-19 22:14 159 18.9
2017-Nov-19 21:59 159 18.9
2017-Nov-19 21:44 159 18.9
2017-Nov-19 21:29 159 18.9
2017-Nov-19 21:14 159 1 gusting 3 19.4
2017-Nov-19 20:59 159 0 gusting 3 19.4
2017-Nov-19 20:44 159 0 gusting 4 20.0
2017-Nov-19 20:29 161 1 gusting 4 20.0
2017-Nov-19 20:14 171 20.0
2017-Nov-19 19:59 214 1 gusting 6 20.6
2017-Nov-19 19:44 129 4 gusting 9 20.6
2017-Nov-19 19:29 159 20.6
2017-Nov-19 19:14 164 20.6
2017-Nov-19 18:59 290 6 gusting 13 20.6
2017-Nov-19 18:44 311 6 gusting 18 20.6
2017-Nov-19 18:29 332 6 gusting 16 20.6
2017-Nov-19 18:14 001 8 gusting 18 21.1
2017-Nov-19 17:59 335 7 gusting 17 21.1
2017-Nov-19 17:44 360 9 gusting 15 21.1
2017-Nov-19 17:29 340 7 gusting 18 21.1
2017-Nov-19 17:14 340 7 gusting 15 21.7
2017-Nov-19 16:59 335 7 gusting 15 21.7
2017-Nov-19 16:44 066 6 gusting 14 22.2
2017-Nov-19 16:29 005 5 gusting 14 22.8
2017-Nov-19 16:14 113 2 gusting 8 22.8
2017-Nov-19 15:59 006 4 gusting 7 22.2
2017-Nov-19 15:44 013 6 gusting 11 22.2
2017-Nov-19 15:29 334 3 gusting 6 23.3
2017-Nov-19 15:14 158 0 gusting 5 23.9
2017-Nov-19 14:59 170 0 gusting 7 23.3
2017-Nov-19 14:44 171 2 gusting 6 22.8
2017-Nov-19 14:29 228 22.2
2017-Nov-19 14:13 324 3 gusting 5 22.8
2017-Nov-19 13:59 313 2 gusting 5 22.2
2017-Nov-19 13:44 330 21.7
2017-Nov-19 13:28 330 1 gusting 5 21.7
2017-Nov-19 13:14 329 0 gusting 3 21.7
2017-Nov-19 12:59 267 3 gusting 6 21.7
2017-Nov-19 12:44 278 3 gusting 7 21.7
2017-Nov-19 12:29 267 5 gusting 8 21.7
2017-Nov-19 12:14 307 1 gusting 6 21.7
2017-Nov-19 11:59 249 2 gusting 6 22.2
2017-Nov-19 11:43 118 0 gusting 5 22.2
2017-Nov-19 11:29 143 22.2
2017-Nov-19 11:14 143 21.1
2017-Nov-19 10:59 143 20.6
2017-Nov-19 10:43 145 20.0
2017-Nov-19 10:13 168 0 gusting 1 20.0
2017-Nov-19 09:58 168 19.4
2017-Nov-19 09:43 177 3 gusting 5 19.4
2017-Nov-19 09:29 159 0 gusting 3 20.0
2017-Nov-19 09:13 172 1 gusting 3 20.0
2017-Nov-19 08:58 222 20.0
2017-Nov-19 08:44 351 20.6
2017-Nov-19 08:28 047 1 gusting 5 19.4
2017-Nov-19 08:13 117 18.9
2017-Nov-19 07:58 117 18.9
2017-Nov-19 07:43 153 1 gusting 2 18.9
2017-Nov-19 07:28 153 18.9
2017-Nov-19 07:13 153 18.9
2017-Nov-19 06:58 153 19.4
2017-Nov-19 06:43 171 1 gusting 3 18.9
2017-Nov-19 06:28 171 0 gusting 2 18.9
2017-Nov-19 06:13 171 19.4
2017-Nov-19 05:58 171 18.9
2017-Nov-19 05:43 171 0 gusting 3 20.0
2017-Nov-19 05:28 167 0 gusting 9 20.0
2017-Nov-19 05:13 097 3 gusting 10 20.6
2017-Nov-19 04:58 082 2 gusting 9 20.6
2017-Nov-19 04:28 116 2 gusting 9 19.4
2017-Nov-19 04:13 182 18.9
2017-Nov-19 04:02 182 0 gusting 1 19.4
2017-Nov-19 03:43 182 20.0
2017-Nov-19 03:35 182 0 gusting 2 19.4
2017-Nov-19 03:20 182 18.9
2017-Nov-19 02:58 182 1 gusting 2 19.4
2017-Nov-19 02:43 054 20.0
2017-Nov-19 02:28 113 20.0
2017-Nov-19 02:13 082 2 gusting 7 19.4
2017-Nov-19 01:58 071 0 gusting 4 19.4
2017-Nov-19 01:45 051 18.9
2017-Nov-19 01:27 168 18.9
2017-Nov-19 01:12 168 0 gusting 1 18.9
2017-Nov-19 00:57 168 1 gusting 2 18.9
2017-Nov-19 00:42 168 0 gusting 2 18.9
2017-Nov-19 00:27 168 19.4
2017-Nov-19 00:12 168 19.4
2017-Nov-18 23:58 168 19.4
2017-Nov-18 23:12 168 19.4
2017-Nov-18 22:57 168 18.9
2017-Nov-18 22:42 168 18.9
2017-Nov-18 22:27 168 19.4
2017-Nov-18 22:12 176 1 gusting 3 19.4
2017-Nov-18 21:57 328 19.4
2017-Nov-18 21:42 328 19.4
2017-Nov-18 21:27 328 20.0
2017-Nov-18 21:12 328 20.0